createdAt,value
2024-02-29T00:01:19.149Z,44.10
2024-02-29T00:05:13.453Z,45.90
2024-02-29T00:09:14.337Z,45.50
2024-02-29T00:13:12.016Z,43.00
2024-02-29T00:16:45.819Z,45.70
2024-02-29T00:23:42.320Z,46.10
2024-02-29T00:27:25.969Z,48.40
2024-02-29T00:31:22.211Z,49.90
2024-02-29T00:38:44.809Z,48.70
2024-02-29T00:42:48.792Z,45.50
2024-02-29T00:46:43.828Z,44.60
2024-02-29T00:50:25.461Z,39.80
2024-02-29T00:54:29.445Z,33.10
2024-02-29T00:58:33.479Z,34.20
2024-02-29T01:02:27.254Z,35.70
2024-02-29T01:06:14.033Z,36.30
2024-02-29T01:10:18.030Z,34.10
2024-02-29T01:13:29.633Z,33.50
2024-02-29T01:17:16.240Z,29.70
2024-02-29T01:21:18.745Z,27.00
2024-02-29T01:25:22.913Z,24.40
2024-02-29T01:29:07.724Z,27.10
2024-02-29T01:33:11.656Z,27.40
2024-02-29T01:36:41.500Z,27.80
2024-02-29T01:40:44.107Z,25.90
2024-02-29T01:44:40.718Z,22.10
2024-02-29T01:48:44.705Z,22.20
2024-02-29T01:52:48.745Z,23.70
2024-02-29T01:56:52.648Z,21.00
2024-02-29T02:00:30.708Z,24.50
2024-02-29T02:04:17.779Z,25.40
2024-02-29T02:07:47.950Z,22.90
2024-02-29T02:11:41.997Z,21.80
2024-02-29T02:15:27.618Z,23.70
2024-02-29T02:18:33.691Z,24.80
2024-02-29T02:22:26.680Z,23.20
2024-02-29T02:26:19.494Z,25.00
2024-02-29T02:30:23.314Z,24.30
2024-02-29T02:33:53.156Z,24.90
2024-02-29T02:37:57.109Z,24.90
2024-02-29T02:41:48.118Z,26.30
2024-02-29T02:45:39.216Z,26.70
2024-02-29T02:49:15.540Z,27.40
2024-02-29T02:52:56.701Z,28.40
2024-02-29T02:56:40.754Z,28.90
2024-02-29T03:00:43.589Z,29.00
2024-02-29T03:04:39.031Z,27.40
2024-02-29T03:08:42.987Z,26.60
2024-02-29T03:12:40.078Z,27.60
2024-02-29T03:16:37.117Z,26.00
2024-02-29T03:20:34.821Z,23.70
2024-02-29T03:24:37.700Z,26.20
2024-02-29T03:28:41.682Z,23.50
2024-02-29T03:32:47.557Z,28.20
2024-02-29T03:36:41.223Z,24.70
2024-02-29T03:40:27.741Z,24.50
2024-02-29T03:44:21.489Z,26.10
2024-02-29T03:48:15.297Z,23.30
2024-02-29T03:52:09.118Z,27.30
2024-02-29T03:56:13.298Z,22.30
2024-02-29T04:00:17.149Z,25.30
2024-02-29T04:04:13.820Z,27.10
2024-02-29T04:08:17.856Z,25.60
2024-02-29T04:12:01.620Z,26.10
2024-02-29T04:15:52.526Z,26.10
2024-02-29T04:19:50.406Z,28.10
2024-02-29T04:23:54.467Z,26.90
2024-02-29T04:27:39.350Z,26.10
2024-02-29T04:31:34.733Z,25.40
2024-02-29T04:35:19.996Z,28.10
2024-02-29T04:39:23.907Z,30.50
2024-02-29T04:43:13.291Z,25.60
2024-02-29T04:47:17.394Z,25.20
2024-02-29T04:51:11.185Z,24.00
2024-02-29T04:54:58.924Z,25.50
2024-02-29T04:59:01.836Z,28.90
2024-02-29T05:03:05.698Z,28.10
2024-02-29T05:06:39.522Z,28.00
2024-02-29T05:10:33.403Z,26.40
2024-02-29T05:14:30.120Z,29.00
2024-02-29T05:18:34.087Z,29.30
2024-02-29T05:22:39.804Z,26.20
2024-02-29T05:26:36.887Z,26.70
2024-02-29T05:30:06.605Z,24.90
2024-02-29T05:33:54.272Z,26.50
2024-02-29T05:37:50.844Z,26.90
2024-02-29T05:41:27.002Z,22.90
2024-02-29T05:45:31.043Z,26.90
2024-02-29T05:49:27.552Z,25.70
2024-02-29T05:53:31.502Z,27.00
2024-02-29T05:57:19.390Z,28.20
2024-02-29T06:01:13.248Z,29.20
2024-02-29T06:04:46.473Z,30.50
2024-02-29T06:08:20.281Z,27.00
2024-02-29T06:12:14.281Z,27.20
2024-02-29T06:19:42.017Z,30.30
2024-02-29T06:23:45.973Z,31.90
2024-02-29T06:27:50.000Z,29.60
2024-02-29T06:31:42.931Z,28.30
2024-02-29T06:35:26.838Z,31.00
2024-02-29T06:43:06.280Z,29.10
2024-02-29T06:47:01.896Z,32.40
2024-02-29T06:50:57.113Z,32.10
2024-02-29T06:55:00.877Z,31.00
2024-02-29T06:58:54.767Z,31.50
2024-02-29T07:02:51.356Z,32.40
2024-02-29T07:06:55.373Z,29.40
2024-02-29T07:10:51.536Z,32.70
2024-02-29T07:14:39.599Z,31.30
2024-02-29T07:18:43.509Z,30.90
2024-02-29T07:22:38.321Z,31.70
2024-02-29T07:26:44.939Z,32.50
2024-02-29T07:30:49.041Z,30.00
2024-02-29T07:34:52.974Z,28.90
2024-02-29T07:38:56.849Z,28.50
2024-02-29T07:43:00.926Z,36.20
2024-02-29T07:47:04.980Z,27.90
2024-02-29T07:50:52.670Z,31.80
2024-02-29T07:54:17.620Z,35.50
2024-02-29T07:58:11.618Z,28.40
2024-02-29T08:02:08.439Z,27.90
2024-02-29T08:06:12.832Z,29.60
2024-02-29T08:09:31.919Z,24.80
2024-02-29T08:13:34.976Z,23.80
2024-02-29T08:17:29.947Z,24.90
2024-02-29T08:21:23.823Z,23.60
2024-02-29T08:25:10.121Z,26.00
2024-02-29T08:29:03.327Z,29.80
2024-02-29T08:32:58.085Z,26.40
2024-02-29T08:36:35.806Z,31.40
2024-02-29T08:40:29.016Z,28.30
2024-02-29T08:44:34.035Z,27.50
2024-02-29T08:48:38.084Z,30.60
2024-02-29T08:52:22.034Z,30.90
2024-02-29T08:56:26.049Z,33.40
2024-02-29T09:00:19.886Z,31.40
2024-02-29T09:04:24.004Z,31.80
2024-02-29T09:08:21.902Z,35.10
2024-02-29T09:12:07.640Z,33.70
2024-02-29T09:15:38.540Z,36.50
2024-02-29T09:19:22.373Z,37.80
2024-02-29T09:23:05.233Z,37.40
2024-02-29T09:30:53.175Z,39.60
2024-02-29T09:34:35.627Z,38.70
2024-02-29T09:38:14.066Z,39.20
2024-02-29T09:42:08.649Z,36.30
2024-02-29T09:46:08.665Z,38.50
2024-02-29T09:50:02.005Z,36.20
2024-02-29T09:53:59.253Z,38.10
2024-02-29T09:58:03.197Z,38.10
2024-02-29T10:01:57.562Z,38.60
2024-02-29T10:05:55.230Z,35.20
2024-02-29T10:09:49.111Z,37.50
2024-02-29T10:13:43.935Z,38.20
2024-02-29T10:17:32.689Z,37.70
2024-02-29T10:21:26.907Z,35.10
2024-02-29T10:25:03.026Z,39.60
2024-02-29T10:28:51.585Z,38.10
2024-02-29T10:32:20.602Z,39.10
2024-02-29T10:35:55.773Z,40.50
2024-02-29T10:39:52.612Z,38.30
2024-02-29T10:43:51.337Z,37.90
2024-02-29T10:47:53.709Z,44.00
2024-02-29T10:51:49.363Z,42.30
2024-02-29T10:55:51.977Z,45.90
2024-02-29T10:59:51.942Z,44.30
2024-02-29T11:03:55.836Z,41.50
2024-02-29T11:07:58.361Z,44.30
2024-02-29T11:11:56.336Z,46.40
2024-02-29T11:19:11.865Z,49.80
2024-02-29T11:23:15.931Z,43.60
2024-02-29T11:26:54.777Z,46.00
2024-02-29T11:31:01.436Z,47.70
2024-02-29T11:35:05.326Z,49.00
2024-02-29T11:38:40.038Z,46.10
2024-02-29T11:42:38.574Z,43.70
2024-02-29T11:46:48.367Z,41.30
2024-02-29T11:50:53.633Z,45.30
2024-02-29T11:54:57.607Z,43.60
2024-02-29T11:59:01.558Z,42.40
2024-02-29T12:02:59.082Z,39.80
2024-02-29T12:07:03.301Z,42.20
2024-02-29T12:11:07.521Z,43.20
2024-02-29T12:14:43.729Z,38.10
2024-02-29T12:18:28.384Z,36.70
2024-02-29T12:21:53.728Z,36.20
2024-02-29T12:25:55.108Z,35.90
2024-02-29T12:29:37.820Z,34.30
2024-02-29T12:33:31.663Z,34.50
2024-02-29T12:40:53.278Z,31.00
2024-02-29T12:44:29.200Z,31.70
2024-02-29T12:48:21.665Z,36.80
2024-02-29T12:52:25.609Z,30.80
2024-02-29T12:55:57.045Z,29.70
2024-02-29T12:59:40.775Z,33.60
2024-02-29T13:02:55.724Z,31.20
2024-02-29T13:06:59.887Z,32.40
2024-02-29T13:11:02.816Z,38.80
2024-02-29T13:15:06.887Z,34.20
2024-02-29T13:19:04.480Z,32.10
2024-02-29T13:23:08.267Z,35.20
2024-02-29T13:27:12.143Z,37.40
2024-02-29T13:31:06.139Z,34.40
2024-02-29T13:38:53.770Z,40.20
2024-02-29T13:42:26.352Z,36.50
2024-02-29T13:46:01.029Z,41.60
2024-02-29T13:49:22.675Z,46.10
2024-02-29T13:53:27.244Z,49.10
2024-02-29T13:57:31.228Z,46.70
2024-02-29T14:01:17.619Z,50.10
2024-02-29T14:05:01.871Z,52.60
2024-02-29T14:08:35.464Z,53.40
2024-02-29T14:11:55.578Z,53.80
2024-02-29T14:15:32.861Z,54.30
2024-02-29T14:19:36.869Z,51.60
2024-02-29T14:23:40.688Z,53.00
2024-02-29T14:27:44.691Z,52.90
2024-02-29T14:31:40.259Z,48.40
2024-02-29T14:35:44.173Z,49.70
2024-02-29T14:39:48.242Z,50.20
2024-02-29T14:43:38.201Z,50.80
2024-02-29T14:47:34.842Z,48.20
2024-02-29T14:51:23.466Z,48.50
2024-02-29T14:55:28.450Z,49.40
2024-02-29T14:59:21.918Z,50.00
2024-02-29T15:03:08.785Z,49.10
2024-02-29T15:06:45.723Z,53.30
2024-02-29T15:10:49.729Z,54.30
2024-02-29T15:14:34.925Z,54.00
2024-02-29T15:18:38.756Z,55.10
2024-02-29T15:22:25.506Z,56.40
2024-02-29T15:30:03.210Z,46.40
2024-02-29T15:33:46.749Z,44.40
2024-02-29T15:37:43.784Z,48.80
2024-02-29T15:41:19.938Z,52.70
2024-02-29T15:45:06.164Z,49.50
2024-02-29T15:49:02.089Z,50.10
2024-02-29T15:52:56.707Z,45.70
2024-02-29T15:57:00.874Z,56.90
2024-02-29T16:00:58.799Z,56.60
2024-02-29T16:05:06.552Z,51.20
2024-02-29T16:09:10.521Z,51.40
2024-02-29T16:12:57.591Z,53.10
2024-02-29T16:16:22.407Z,51.00
2024-02-29T16:19:42.340Z,53.70
2024-02-29T16:23:26.034Z,54.40
2024-02-29T16:26:53.266Z,53.00
2024-02-29T16:30:42.631Z,48.60
2024-02-29T16:34:37.352Z,49.40
2024-02-29T16:38:22.393Z,56.20
2024-02-29T16:42:26.381Z,61.40
2024-02-29T16:46:22.493Z,60.90
2024-02-29T16:49:48.712Z,58.70
2024-02-29T16:53:38.346Z,65.30
2024-02-29T16:57:32.012Z,60.10
2024-02-29T17:01:04.567Z,58.90
2024-02-29T17:04:38.019Z,56.10
2024-02-29T17:08:40.827Z,66.70
2024-02-29T17:12:32.540Z,59.80
2024-02-29T17:16:16.214Z,59.70
2024-02-29T17:20:12.723Z,58.60
2024-02-29T17:24:07.544Z,55.00
2024-02-29T17:28:13.395Z,54.50
2024-02-29T17:32:17.317Z,57.20
2024-02-29T17:39:44.783Z,62.40
2024-02-29T17:43:29.900Z,52.90
2024-02-29T17:47:13.632Z,55.30
2024-02-29T17:54:32.776Z,62.00
2024-02-29T17:58:19.093Z,63.30
2024-02-29T18:01:32.303Z,60.60
2024-02-29T18:05:07.458Z,69.00
2024-02-29T18:08:03.060Z,66.00
2024-02-29T18:11:15.757Z,60.60
2024-02-29T18:14:33.829Z,61.20
2024-02-29T18:18:21.671Z,65.40
2024-02-29T18:22:16.060Z,61.30
2024-02-29T18:26:03.134Z,65.70
2024-02-29T18:29:40.101Z,76.10
2024-02-29T18:33:44.205Z,75.80
2024-02-29T18:36:44.213Z,70.20
2024-02-29T18:39:57.201Z,69.00
2024-02-29T18:44:01.390Z,75.70
2024-02-29T18:47:57.692Z,65.20
2024-02-29T18:51:32.348Z,61.70
2024-02-29T18:55:19.175Z,64.90
2024-02-29T18:58:56.485Z,62.30
2024-02-29T19:03:02.447Z,57.60
2024-02-29T19:06:49.928Z,61.30
2024-02-29T19:09:55.845Z,60.00
2024-02-29T19:13:31.893Z,52.80
2024-02-29T19:17:09.442Z,61.80
2024-02-29T19:21:13.551Z,62.40
2024-02-29T19:24:29.934Z,58.90
2024-02-29T19:27:56.531Z,59.50
2024-02-29T19:31:30.144Z,61.00
2024-02-29T19:38:58.363Z,61.10
2024-02-29T19:43:02.327Z,57.20
2024-02-29T19:46:38.634Z,65.50
2024-02-29T19:50:04.822Z,62.50
2024-02-29T19:53:53.816Z,66.50
2024-02-29T19:57:57.855Z,61.20
2024-02-29T20:02:00.815Z,67.10
2024-02-29T20:05:16.558Z,66.60
2024-02-29T20:08:35.428Z,61.60
2024-02-29T20:12:02.990Z,57.60
2024-02-29T20:15:06.173Z,55.10
2024-02-29T20:18:26.384Z,57.00
2024-02-29T20:21:48.531Z,64.80
2024-02-29T20:24:59.397Z,62.50
2024-02-29T20:28:27.056Z,62.70
2024-02-29T20:32:13.692Z,60.00
2024-02-29T20:36:10.530Z,60.20
2024-02-29T20:39:54.484Z,66.20
2024-02-29T20:47:14.658Z,64.80
2024-02-29T20:50:59.394Z,68.00
2024-02-29T20:54:11.704Z,64.20
2024-02-29T20:57:44.874Z,60.50
2024-02-29T21:01:49.970Z,65.10
2024-02-29T21:05:29.771Z,68.50
2024-02-29T21:09:06.816Z,69.60
2024-02-29T21:13:03.171Z,68.30
2024-02-29T21:17:07.224Z,59.90
2024-02-29T21:23:43.924Z,66.80
2024-02-29T21:27:38.526Z,67.70
2024-02-29T21:31:27.213Z,65.60
2024-02-29T21:35:10.275Z,62.90
2024-02-29T21:38:49.332Z,65.30
2024-02-29T21:42:49.322Z,68.30
2024-02-29T21:46:23.249Z,68.00
2024-02-29T21:49:47.082Z,61.90
2024-02-29T21:53:37.174Z,66.60
2024-02-29T21:57:30.182Z,63.50
2024-02-29T22:01:26.951Z,65.70
2024-02-29T22:05:14.610Z,64.00
2024-02-29T22:09:20.856Z,67.20
2024-02-29T22:13:15.703Z,67.50
2024-02-29T22:16:50.303Z,62.40
2024-02-29T22:20:55.265Z,68.80
2024-02-29T22:24:59.269Z,68.00
2024-02-29T22:28:43.372Z,70.40
2024-02-29T22:32:47.474Z,71.20
2024-02-29T22:36:41.261Z,78.00
2024-02-29T22:40:35.538Z,71.30
2024-02-29T22:44:39.491Z,73.70
2024-02-29T22:48:43.457Z,74.00
2024-02-29T22:52:48.247Z,77.00
2024-02-29T22:56:52.092Z,67.80
2024-02-29T23:00:56.329Z,64.60
2024-02-29T23:08:46.048Z,77.10
2024-02-29T23:12:50.067Z,71.40
2024-02-29T23:16:46.855Z,77.90
2024-02-29T23:20:42.369Z,70.20
2024-02-29T23:24:28.236Z,74.30
2024-02-29T23:28:22.188Z,74.10
2024-02-29T23:36:03.221Z,80.70
2024-02-29T23:39:59.653Z,80.90
2024-02-29T23:43:46.078Z,77.70
2024-02-29T23:47:40.869Z,80.00
2024-02-29T23:51:41.564Z,82.50
2024-02-29T23:55:27.306Z,79.60
2024-02-29T23:58:54.502Z,78.30
